sensor_id;sensor_type;location;lat;lon;timestamp;pressure;altitude;pressure_sealevel;temperature;humidity
61337;BME280;47212;41.326;2.104;2023-03-25T00:04:33;101841.91;;;15.51;73.66
61337;BME280;47212;41.326;2.104;2023-03-25T00:09:36;101856.97;;;15.49;73.61
61337;BME280;47212;41.326;2.104;2023-03-25T00:14:38;101863.28;;;15.44;73.69
61337;BME280;47212;41.326;2.104;2023-03-25T00:19:40;101868.50;;;15.46;73.31
61337;BME280;47212;41.326;2.104;2023-03-25T00:24:44;101851.75;;;15.42;73.32
61337;BME280;47212;41.326;2.104;2023-03-25T00:29:46;101863.25;;;15.39;73.56
61337;BME280;47212;41.326;2.104;2023-03-25T00:34:52;101852.53;;;15.38;73.41
61337;BME280;47212;41.326;2.104;2023-03-25T00:39:54;101843.19;;;15.34;73.23
61337;BME280;47212;41.326;2.104;2023-03-25T00:44:56;101848.94;;;15.32;73.43
61337;BME280;47212;41.326;2.104;2023-03-25T00:49:58;101854.16;;;15.28;73.73
61337;BME280;47212;41.326;2.104;2023-03-25T00:55:01;101864.00;;;15.24;73.65
61337;BME280;47212;41.326;2.104;2023-03-25T01:00:05;101877.16;;;15.22;73.24
61337;BME280;47212;41.326;2.104;2023-03-25T01:05:09;101881.25;;;15.20;73.20
61337;BME280;47212;41.326;2.104;2023-03-25T01:10:12;101887.81;;;15.19;73.39
61337;BME280;47212;41.326;2.104;2023-03-25T01:15:15;101884.53;;;15.17;73.60
61337;BME280;47212;41.326;2.104;2023-03-25T01:20:18;101869.44;;;15.14;73.61
61337;BME280;47212;41.326;2.104;2023-03-25T01:25:20;101894.38;;;15.13;73.30
61337;BME280;47212;41.326;2.104;2023-03-25T01:30:22;101891.34;;;15.09;73.66
61337;BME280;47212;41.326;2.104;2023-03-25T01:35:24;101889.13;;;15.06;73.68
61337;BME280;47212;41.326;2.104;2023-03-25T01:40:27;101919.81;;;15.03;73.50
61337;BME280;47212;41.326;2.104;2023-03-25T01:45:30;101940.63;;;14.99;73.46
61337;BME280;47212;41.326;2.104;2023-03-25T01:50:41;101924.97;;;14.94;73.36
61337;BME280;47212;41.326;2.104;2023-03-25T01:55:45;101917.78;;;14.88;73.26
61337;BME280;47212;41.326;2.104;2023-03-25T02:05:19;101893.31;;;14.77;73.51
61337;BME280;47212;41.326;2.104;2023-03-25T02:10:22;101897.06;;;14.71;73.69
61337;BME280;47212;41.326;2.104;2023-03-25T02:15:25;101903.59;;;14.64;74.08
61337;BME280;47212;41.326;2.104;2023-03-25T02:41:56;101902.25;;;14.40;74.01
61337;BME280;47212;41.326;2.104;2023-03-25T02:47:03;101896.72;;;14.35;74.49
61337;BME280;47212;41.326;2.104;2023-03-25T02:52:23;101897.81;;;14.34;74.27
61337;BME280;47212;41.326;2.104;2023-03-25T02:57:27;101906.81;;;14.29;74.42
61337;BME280;47212;41.326;2.104;2023-03-25T03:02:31;101911.97;;;14.26;74.56
61337;BME280;47212;41.326;2.104;2023-03-25T03:07:38;101905.63;;;14.20;74.56
61337;BME280;47212;41.326;2.104;2023-03-25T03:13:04;101917.91;;;14.18;74.56
61337;BME280;47212;41.326;2.104;2023-03-25T03:23:49;101907.94;;;14.07;74.63
61337;BME280;47212;41.326;2.104;2023-03-25T03:29:06;101913.94;;;14.03;74.06
61337;BME280;47212;41.326;2.104;2023-03-25T03:34:19;101922.66;;;14.00;74.22
61337;BME280;47212;41.326;2.104;2023-03-25T03:39:32;101924.25;;;13.96;74.48
61337;BME280;47212;41.326;2.104;2023-03-25T03:44:38;101927.75;;;13.92;74.57
61337;BME280;47212;41.326;2.104;2023-03-25T03:49:58;101941.34;;;13.87;74.61
61337;BME280;47212;41.326;2.104;2023-03-25T03:55:08;101939.88;;;13.79;75.09
61337;BME280;47212;41.326;2.104;2023-03-25T04:00:21;101929.13;;;13.73;74.60
61337;BME280;47212;41.326;2.104;2023-03-25T04:05:27;101930.47;;;13.70;74.79
61337;BME280;47212;41.326;2.104;2023-03-25T04:10:45;101941.59;;;13.63;75.19
61337;BME280;47212;41.326;2.104;2023-03-25T04:15:53;101942.34;;;13.59;75.17
61337;BME280;47212;41.326;2.104;2023-03-25T04:20:58;101953.22;;;13.54;75.32
61337;BME280;47212;41.326;2.104;2023-03-25T04:26:01;101955.91;;;13.49;75.01
61337;BME280;47212;41.326;2.104;2023-03-25T04:31:03;101958.56;;;13.44;76.20
61337;BME280;47212;41.326;2.104;2023-03-25T04:36:10;101967.28;;;13.41;75.20
61337;BME280;47212;41.326;2.104;2023-03-25T04:41:14;101973.00;;;13.39;75.76
61337;BME280;47212;41.326;2.104;2023-03-25T04:46:17;101975.16;;;13.37;76.02
61337;BME280;47212;41.326;2.104;2023-03-25T04:51:19;101963.06;;;13.33;76.08
61337;BME280;47212;41.326;2.104;2023-03-25T04:56:24;101964.38;;;13.30;75.79
61337;BME280;47212;41.326;2.104;2023-03-25T05:08:16;101980.72;;;13.25;75.93
61337;BME280;47212;41.326;2.104;2023-03-25T05:13:19;101981.78;;;13.24;75.87
61337;BME280;47212;41.326;2.104;2023-03-25T05:18:21;101988.34;;;13.23;75.84
61337;BME280;47212;41.326;2.104;2023-03-25T05:23:23;101996.78;;;13.22;76.39
61337;BME280;47212;41.326;2.104;2023-03-25T05:28:26;101989.91;;;13.19;76.26
61337;BME280;47212;41.326;2.104;2023-03-25T05:33:28;101990.38;;;13.16;76.26
61337;BME280;47212;41.326;2.104;2023-03-25T05:38:30;102001.81;;;13.13;76.76
61337;BME280;47212;41.326;2.104;2023-03-25T05:43:33;102013.25;;;13.10;76.55
61337;BME280;47212;41.326;2.104;2023-03-25T05:48:36;102026.34;;;13.08;75.93
61337;BME280;47212;41.326;2.104;2023-03-25T05:53:38;102036.69;;;13.06;75.96
61337;BME280;47212;41.326;2.104;2023-03-25T05:58:41;102039.09;;;13.02;76.17
61337;BME280;47212;41.326;2.104;2023-03-25T06:03:43;102041.47;;;12.99;76.23
61337;BME280;47212;41.326;2.104;2023-03-25T06:08:47;102037.06;;;12.98;76.48
61337;BME280;47212;41.326;2.104;2023-03-25T06:13:52;102042.66;;;13.03;76.72
61337;BME280;47212;41.326;2.104;2023-03-25T06:18:55;102048.22;;;13.08;76.29
61337;BME280;47212;41.326;2.104;2023-03-25T06:23:58;102046.06;;;13.10;76.21
61337;BME280;47212;41.326;2.104;2023-03-25T06:29:01;102061.38;;;13.11;76.09
61337;BME280;47212;41.326;2.104;2023-03-25T06:34:04;102065.28;;;13.15;75.92
61337;BME280;47212;41.326;2.104;2023-03-25T06:39:06;102064.44;;;13.15;76.34
61337;BME280;47212;41.326;2.104;2023-03-25T06:44:13;102077.41;;;13.19;76.25
61337;BME280;47212;41.326;2.104;2023-03-25T06:49:33;102086.53;;;13.25;75.89
61337;BME280;47212;41.326;2.104;2023-03-25T06:54:36;102095.47;;;13.37;75.82
61337;BME280;47212;41.326;2.104;2023-03-25T06:59:38;102103.34;;;13.50;75.72
61337;BME280;47212;41.326;2.104;2023-03-25T07:04:41;102102.53;;;13.66;75.65
61337;BME280;47212;41.326;2.104;2023-03-25T07:09:43;102113.94;;;13.80;75.53
61337;BME280;47212;41.326;2.104;2023-03-25T07:14:49;102121.84;;;13.93;75.76
61337;BME280;47212;41.326;2.104;2023-03-25T07:19:51;102135.44;;;14.05;74.86
61337;BME280;47212;41.326;2.104;2023-03-25T07:24:53;102138.88;;;14.17;75.14
61337;BME280;47212;41.326;2.104;2023-03-25T07:29:56;102145.63;;;14.48;74.38
61337;BME280;47212;41.326;2.104;2023-03-25T07:34:58;102144.91;;;14.75;73.89
61337;BME280;47212;41.326;2.104;2023-03-25T07:40:00;102157.44;;;15.19;73.08
61337;BME280;47212;41.326;2.104;2023-03-25T07:45:02;102161.78;;;15.42;71.60
61337;BME280;47212;41.326;2.104;2023-03-25T07:50:06;102169.03;;;15.53;71.76
61337;BME280;47212;41.326;2.104;2023-03-25T07:55:08;102192.00;;;15.69;71.98
61337;BME280;47212;41.326;2.104;2023-03-25T08:00:12;102199.88;;;15.92;71.38
61337;BME280;47212;41.326;2.104;2023-03-25T08:05:15;102199.50;;;16.16;70.88
61337;BME280;47212;41.326;2.104;2023-03-25T08:10:22;102193.47;;;16.61;69.88
61337;BME280;47212;41.326;2.104;2023-03-25T08:15:24;102190.66;;;17.08;67.13
61337;BME280;47212;41.326;2.104;2023-03-25T08:20:26;102182.25;;;17.66;67.06
61337;BME280;47212;41.326;2.104;2023-03-25T08:25:29;102180.59;;;18.10;65.55
61337;BME280;47212;41.326;2.104;2023-03-25T08:30:32;102178.38;;;18.28;65.20
61337;BME280;47212;41.326;2.104;2023-03-25T08:35:39;102182.78;;;18.29;65.62
61337;BME280;47212;41.326;2.104;2023-03-25T08:40:42;102182.78;;;18.08;66.28
61337;BME280;47212;41.326;2.104;2023-03-25T08:45:45;102193.56;;;17.90;67.17
61337;BME280;47212;41.326;2.104;2023-03-25T08:50:47;102188.31;;;17.98;66.94
61337;BME280;47212;41.326;2.104;2023-03-25T08:55:49;102183.09;;;17.92;65.50
61337;BME280;47212;41.326;2.104;2023-03-25T09:00:54;102197.41;;;17.89;66.76
61337;BME280;47212;41.326;2.104;2023-03-25T09:05:57;102197.41;;;17.94;66.58
61337;BME280;47212;41.326;2.104;2023-03-25T09:10:59;102192.72;;;18.04;66.18
61337;BME280;47212;41.326;2.104;2023-03-25T09:16:02;102195.75;;;17.98;66.41
61337;BME280;47212;41.326;2.104;2023-03-25T09:21:04;102205.69;;;17.99;66.31
61337;BME280;47212;41.326;2.104;2023-03-25T09:26:07;102197.13;;;17.90;66.52
61337;BME280;47212;41.326;2.104;2023-03-25T09:31:09;102205.69;;;17.68;67.39
61337;BME280;47212;41.326;2.104;2023-03-25T09:36:11;102193.00;;;17.88;66.68
61337;BME280;47212;41.326;2.104;2023-03-25T09:41:32;102211.72;;;18.06;65.07
61337;BME280;47212;41.326;2.104;2023-03-25T09:46:42;102208.34;;;18.55;65.11
61337;BME280;47212;41.326;2.104;2023-03-25T09:51:47;102203.94;;;18.64;64.80
61337;BME280;47212;41.326;2.104;2023-03-25T09:56:53;102189.78;;;18.86;63.81
61337;BME280;47212;41.326;2.104;2023-03-25T10:07:48;102197.88;;;18.62;63.33
61337;BME280;47212;41.326;2.104;2023-03-25T10:23:28;102215.78;;;18.59;63.82
61337;BME280;47212;41.326;2.104;2023-03-25T10:28:38;102206.09;;;18.77;62.13
61337;BME280;47212;41.326;2.104;2023-03-25T10:33:53;102205.06;;;18.53;61.68
61337;BME280;47212;41.326;2.104;2023-03-25T10:38:58;102187.13;;;18.55;62.09
61337;BME280;47212;41.326;2.104;2023-03-25T10:44:09;102186.00;;;18.56;59.90
61337;BME280;47212;41.326;2.104;2023-03-25T10:49:30;102196.75;;;18.73;60.55
61337;BME280;47212;41.326;2.104;2023-03-25T10:54:37;102187.28;;;18.89;59.50
61337;BME280;47212;41.326;2.104;2023-03-25T11:00:07;102181.78;;;18.84;58.00
61337;BME280;47212;41.326;2.104;2023-03-25T11:05:21;102183.97;;;18.87;58.83
61337;BME280;47212;41.326;2.104;2023-03-25T11:10:28;102173.56;;;18.74;57.24
61337;BME280;47212;41.326;2.104;2023-03-25T11:15:35;102183.50;;;18.70;57.52
61337;BME280;47212;41.326;2.104;2023-03-25T11:21:00;102183.25;;;18.66;57.48
61337;BME280;47212;41.326;2.104;2023-03-25T11:26:24;102181.59;;;18.65;57.62
61337;BME280;47212;41.326;2.104;2023-03-25T11:31:32;102171.66;;;18.69;58.02
61337;BME280;47212;41.326;2.104;2023-03-25T11:41:39;102161.09;;;18.87;57.76
61337;BME280;47212;41.326;2.104;2023-03-25T11:46:41;102155.81;;;18.90;57.25
61337;BME280;47212;41.326;2.104;2023-03-25T11:51:56;102158.50;;;19.05;56.20
61337;BME280;47212;41.326;2.104;2023-03-25T11:57:02;102143.56;;;19.17;55.98
61337;BME280;47212;41.326;2.104;2023-03-25T12:02:22;102145.34;;;18.92;55.73
61337;BME280;47212;41.326;2.104;2023-03-25T12:07:24;102131.66;;;18.72;57.65
61337;BME280;47212;41.326;2.104;2023-03-25T12:51:16;102053.75;;;18.90;54.11
61337;BME280;47212;41.326;2.104;2023-03-25T13:02:27;102038.59;;;18.88;53.69
61337;BME280;47212;41.326;2.104;2023-03-25T13:07:35;102037.34;;;18.65;52.76
61337;BME280;47212;41.326;2.104;2023-03-25T13:12:45;102031.59;;;18.61;53.92
61337;BME280;47212;41.326;2.104;2023-03-25T13:17:56;102012.50;;;18.70;52.63
61337;BME280;47212;41.326;2.104;2023-03-25T13:23:02;102012.94;;;18.87;53.19
61337;BME280;47212;41.326;2.104;2023-03-25T13:28:11;102017.31;;;18.93;51.89
61337;BME280;47212;41.326;2.104;2023-03-25T13:33:27;102013.59;;;18.74;51.30
61337;BME280;47212;41.326;2.104;2023-03-25T13:38:37;102004.25;;;18.65;51.79
61337;BME280;47212;41.326;2.104;2023-03-25T13:54:35;101993.91;;;18.41;50.83
61337;BME280;47212;41.326;2.104;2023-03-25T14:16:10;101984.69;;;18.07;50.66
61337;BME280;47212;41.326;2.104;2023-03-25T14:26:22;101962.03;;;18.15;52.12
61337;BME280;47212;41.326;2.104;2023-03-25T14:31:29;101966.50;;;18.06;51.77
61337;BME280;47212;41.326;2.104;2023-03-25T14:52:44;101932.50;;;17.61;51.68
61337;BME280;47212;41.326;2.104;2023-03-25T14:57:47;101927.03;;;17.56;51.18
61337;BME280;47212;41.326;2.104;2023-03-25T15:02:58;101905.81;;;17.57;51.68
61337;BME280;47212;41.326;2.104;2023-03-25T15:13:27;101909.41;;;17.52;51.94
61337;BME280;47212;41.326;2.104;2023-03-25T15:34:09;101876.63;;;17.56;52.31
61337;BME280;47212;41.326;2.104;2023-03-25T15:44:41;101870.84;;;17.57;52.64
61337;BME280;47212;41.326;2.104;2023-03-25T15:55:04;101828.75;;;17.51;52.63
61337;BME280;47212;41.326;2.104;2023-03-25T16:05:20;101822.44;;;17.46;53.24
61337;BME280;47212;41.326;2.104;2023-03-25T16:10:31;101817.50;;;17.43;52.62
61337;BME280;47212;41.326;2.104;2023-03-25T16:15:35;101815.91;;;17.22;53.93
61337;BME280;47212;41.326;2.104;2023-03-25T16:20:37;101797.47;;;17.22;54.61
61337;BME280;47212;41.326;2.104;2023-03-25T16:25:40;101785.63;;;17.27;54.08
61337;BME280;47212;41.326;2.104;2023-03-25T16:30:49;101776.31;;;17.17;54.49
61337;BME280;47212;41.326;2.104;2023-03-25T16:36:07;101782.16;;;17.01;54.36
61337;BME280;47212;41.326;2.104;2023-03-25T16:41:14;101778.63;;;16.90;55.19
61337;BME280;47212;41.326;2.104;2023-03-25T16:46:17;101763.78;;;16.86;55.89
61337;BME280;47212;41.326;2.104;2023-03-25T16:51:33;101767.06;;;16.88;55.78
61337;BME280;47212;41.326;2.104;2023-03-25T16:56:39;101776.44;;;16.77;56.05
61337;BME280;47212;41.326;2.104;2023-03-25T17:01:51;101769.84;;;16.83;56.09
61337;BME280;47212;41.326;2.104;2023-03-25T17:06:58;101762.69;;;16.87;56.08
61337;BME280;47212;41.326;2.104;2023-03-25T17:12:06;101748.38;;;16.90;56.48
61337;BME280;47212;41.326;2.104;2023-03-25T17:22:34;101750.84;;;16.86;56.96
61337;BME280;47212;41.326;2.104;2023-03-25T17:27:37;101753.31;;;16.88;57.09
61337;BME280;47212;41.326;2.104;2023-03-25T17:32:43;101756.09;;;16.83;57.24
61337;BME280;47212;41.326;2.104;2023-03-25T17:37:47;101748.66;;;16.83;57.65
61337;BME280;47212;41.326;2.104;2023-03-25T17:42:51;101752.25;;;16.79;57.61
61337;BME280;47212;41.326;2.104;2023-03-25T17:47:55;101755.56;;;16.76;58.53
61337;BME280;47212;41.326;2.104;2023-03-25T17:52:57;101747.06;;;16.67;58.51
61337;BME280;47212;41.326;2.104;2023-03-25T17:58:00;101746.75;;;16.64;59.07
61337;BME280;47212;41.326;2.104;2023-03-25T18:03:15;101745.69;;;16.54;59.25
61337;BME280;47212;41.326;2.104;2023-03-25T18:08:17;101748.44;;;16.49;59.37
61337;BME280;47212;41.326;2.104;2023-03-25T18:13:21;101744.84;;;16.44;59.81
61337;BME280;47212;41.326;2.104;2023-03-25T18:18:25;101732.50;;;16.36;59.87
61337;BME280;47212;41.326;2.104;2023-03-25T18:23:27;101737.44;;;16.34;59.98
61337;BME280;47212;41.326;2.104;2023-03-25T18:28:30;101749.81;;;16.27;60.70
61337;BME280;47212;41.326;2.104;2023-03-25T18:33:32;101736.09;;;16.16;61.17
61337;BME280;47212;41.326;2.104;2023-03-25T18:38:36;101744.34;;;16.06;61.71
61337;BME280;47212;41.326;2.104;2023-03-25T18:43:37;101738.84;;;15.96;62.94
61337;BME280;47212;41.326;2.104;2023-03-25T18:48:40;101741.84;;;15.95;62.50
61337;BME280;47212;41.326;2.104;2023-03-25T18:53:42;101736.91;;;15.91;62.54
61337;BME280;47212;41.326;2.104;2023-03-25T18:58:44;101746.25;;;15.90;62.52
61337;BME280;47212;41.326;2.104;2023-03-25T19:03:47;101757.50;;;15.89;63.59
61337;BME280;47212;41.326;2.104;2023-03-25T19:08:54;101757.22;;;15.90;63.11
61337;BME280;47212;41.326;2.104;2023-03-25T19:13:58;101755.59;;;15.89;63.15
61337;BME280;47212;41.326;2.104;2023-03-25T19:19:00;101749.00;;;15.85;64.31
61337;BME280;47212;41.326;2.104;2023-03-25T19:24:02;101751.72;;;15.80;63.79
61337;BME280;47212;41.326;2.104;2023-03-25T19:29:04;101746.22;;;15.75;64.27
61337;BME280;47212;41.326;2.104;2023-03-25T19:34:06;101737.72;;;15.67;66.56
61337;BME280;47212;41.326;2.104;2023-03-25T19:39:09;101740.72;;;15.65;64.89
61337;BME280;47212;41.326;2.104;2023-03-25T19:44:11;101734.38;;;15.59;65.47
61337;BME280;47212;41.326;2.104;2023-03-25T19:49:20;101725.28;;;15.54;66.18
61337;BME280;47212;41.326;2.104;2023-03-25T19:54:40;101730.22;;;15.47;66.83
61337;BME280;47212;41.326;2.104;2023-03-25T19:59:42;101711.81;;;15.42;67.12
61337;BME280;47212;41.326;2.104;2023-03-25T20:04:44;101723.59;;;15.38;68.83
61337;BME280;47212;41.326;2.104;2023-03-25T20:09:46;101726.34;;;15.38;67.51
61337;BME280;47212;41.326;2.104;2023-03-25T20:14:49;101728.53;;;15.36;68.28
61337;BME280;47212;41.326;2.104;2023-03-25T20:19:51;101727.69;;;15.30;68.37
61337;BME280;47212;41.326;2.104;2023-03-25T20:24:53;101718.91;;;15.23;70.77
61337;BME280;47212;41.326;2.104;2023-03-25T20:29:57;101720.81;;;15.17;69.39
61337;BME280;47212;41.326;2.104;2023-03-25T20:34:59;101719.69;;;15.13;70.22
61337;BME280;47212;41.326;2.104;2023-03-25T20:40:03;101719.13;;;15.11;70.54
61337;BME280;47212;41.326;2.104;2023-03-25T20:45:06;101705.13;;;15.08;71.32
61337;BME280;47212;41.326;2.104;2023-03-25T20:50:11;101694.41;;;15.01;71.98
61337;BME280;47212;41.326;2.104;2023-03-25T20:55:13;101703.75;;;15.00;72.59
61337;BME280;47212;41.326;2.104;2023-03-25T21:00:15;101702.91;;;15.00;72.80
61337;BME280;47212;41.326;2.104;2023-03-25T21:05:20;101693.88;;;14.99;72.72
61337;BME280;47212;41.326;2.104;2023-03-25T21:10:23;101686.47;;;15.00;72.47
61337;BME280;47212;41.326;2.104;2023-03-25T21:15:25;101691.94;;;15.00;71.65
61337;BME280;47212;41.326;2.104;2023-03-25T21:20:28;101687.28;;;15.00;70.83
61337;BME280;47212;41.326;2.104;2023-03-25T21:25:31;101685.63;;;14.99;69.97
61337;BME280;47212;41.326;2.104;2023-03-25T21:30:36;101685.38;;;15.01;70.04
61337;BME280;47212;41.326;2.104;2023-03-25T21:35:38;101678.53;;;15.03;69.85
61337;BME280;47212;41.326;2.104;2023-03-25T21:41:00;101673.06;;;15.08;70.33
61337;BME280;47212;41.326;2.104;2023-03-25T21:46:05;101681.28;;;15.08;70.25
61337;BME280;47212;41.326;2.104;2023-03-25T21:51:11;101681.56;;;15.07;70.65
61337;BME280;47212;41.326;2.104;2023-03-25T21:56:18;101676.59;;;15.04;71.27
61337;BME280;47212;41.326;2.104;2023-03-25T22:01:23;101667.53;;;14.98;72.01
61337;BME280;47212;41.326;2.104;2023-03-25T22:06:31;101666.44;;;14.94;71.86
61337;BME280;47212;41.326;2.104;2023-03-25T22:11:34;101665.88;;;14.92;71.82
61337;BME280;47212;41.326;2.104;2023-03-25T22:16:40;101667.78;;;14.91;72.02
61337;BME280;47212;41.326;2.104;2023-03-25T22:21:43;101657.91;;;14.90;71.65
61337;BME280;47212;41.326;2.104;2023-03-25T22:26:45;101662.31;;;14.91;71.73
61337;BME280;47212;41.326;2.104;2023-03-25T22:31:50;101662.59;;;14.90;72.29
61337;BME280;47212;41.326;2.104;2023-03-25T22:36:57;101654.34;;;14.85;72.69
61337;BME280;47212;41.326;2.104;2023-03-25T22:41:59;101659.81;;;14.85;72.86
61337;BME280;47212;41.326;2.104;2023-03-25T22:47:02;101645.03;;;14.86;72.65
61337;BME280;47212;41.326;2.104;2023-03-25T22:52:04;101648.31;;;14.83;72.75
61337;BME280;47212;41.326;2.104;2023-03-25T22:57:07;101647.75;;;14.81;73.25
61337;BME280;47212;41.326;2.104;2023-03-25T23:02:09;101634.56;;;14.78;75.77
61337;BME280;47212;41.326;2.104;2023-03-25T23:07:15;101636.75;;;14.76;74.24
61337;BME280;47212;41.326;2.104;2023-03-25T23:12:22;101627.41;;;14.72;75.54
61337;BME280;47212;41.326;2.104;2023-03-25T23:17:25;101621.06;;;14.66;75.10
61337;BME280;47212;41.326;2.104;2023-03-25T23:22:28;101615.88;;;14.64;74.96
61337;BME280;47212;41.326;2.104;2023-03-25T23:27:31;101612.84;;;14.61;74.82
61337;BME280;47212;41.326;2.104;2023-03-25T23:32:34;101611.75;;;14.62;74.89
61337;BME280;47212;41.326;2.104;2023-03-25T23:37:36;101612.84;;;14.61;76.64
61337;BME280;47212;41.326;2.104;2023-03-25T23:42:38;101613.91;;;14.55;75.34
61337;BME280;47212;41.326;2.104;2023-03-25T23:47:41;101610.31;;;14.49;76.19
61337;BME280;47212;41.326;2.104;2023-03-25T23:52:43;101602.63;;;14.46;76.80
61337;BME280;47212;41.326;2.104;2023-03-25T23:57:45;101599.03;;;14.41;77.71
